Goodyears Bar, California
Current Conditions -  °F | °C
As of 8:52 AM on Tuesday 21 Oct 2014 (Local Time) from KBLU Reporting Station
Clear Clear  
Wind Chill: 41°   Ceiling: Unl
Heat Index: 41°   Visibility: 10mi
Dew Point: 26°   Wind: 3mph
Humidity: 55%   Direction: 90°E
Pressure: 30.14"   Gusts: NA
Location:  39.54°N, 120.88°W
Report Text: KBLU 211552Z AUTO 09003KT 10SM CLR 05/M03 A3014 RMK AO2 SLP187 T00501033
Loading
Personal Weather Stations






























Interactive Weather Map
Tropical Storm Tracking
New forecast layout! Learn more

10-Day Weather Forecast

Advertisements
Track Severe Weather on mobile